Thursday, April 2, 2015, 12:22 AM EDT

KOKV, Winchester Regional

Location: Winchester, VA, United States Lat: 39.15
Local Time: 12:22 AM EDT ( 4:22 GMT) Lon: -78.15
Time Zone: US/Eastern Elev: 728 ft

Show me the last for .
Show Decoded

2015-04-01 23:55 METAR KOKV 020355Z AUTO 00000KT 10SM CLR 05/M05 A3022 RMK AO2 =
2015-04-01 23:15 METAR KOKV 020315Z AUTO 00000KT 10SM CLR 05/M05 A3020 RMK AO2 =
2015-04-01 22:55 METAR KOKV 020255Z AUTO 00000KT 10SM CLR 05/M05 A3021 RMK AO2 =
2015-04-01 22:35 METAR KOKV 020235Z AUTO 00000KT 10SM CLR 06/M05 A3021 RMK AO2 =
2015-04-01 22:15 METAR KOKV 020215Z AUTO 00000KT 10SM CLR 05/M04 A3020 RMK AO2 =
2015-04-01 21:55 METAR KOKV 020155Z AUTO 00000KT 10SM CLR 07/M05 A3020 RMK AO2 =
2015-04-01 21:35 METAR KOKV 020135Z AUTO 00000KT 10SM CLR 07/M05 A3020 RMK AO2 =
2015-04-01 21:15 METAR KOKV 020115Z AUTO 00000KT 10SM CLR 07/M05 A3018 RMK AO2 =
2015-04-01 20:55 METAR KOKV 020055Z AUTO 00000KT 10SM CLR 08/M05 A3018 RMK AO2 =
2015-04-01 20:35 METAR KOKV 020035Z AUTO 00000KT 10SM CLR 08/M05 A3018 RMK AO2 =
2015-04-01 19:55 METAR KOKV 012355Z AUTO 11005KT 10SM CLR 11/M07 A3016 RMK AO2 =
2015-04-01 19:35 METAR KOKV 012335Z AUTO 10003KT 10SM CLR 12/M08 A3015 RMK AO2 =
2015-04-01 19:15 METAR KOKV 012315Z AUTO 00000KT 10SM CLR 14/M11 A3015 RMK AO2 =
2015-04-01 18:55 METAR KOKV 012255Z AUTO 29004KT 10SM CLR 15/M11 A3015 RMK AO2 =
2015-04-01 18:35 METAR KOKV 012235Z AUTO 33006G14KT 10SM CLR 15/M11 A3013 RMK AO2 =
2015-04-01 18:15 METAR KOKV 012215Z AUTO 01005KT 10SM CLR 16/M13 A3013 RMK AO2 =
2015-04-01 17:55 METAR KOKV 012155Z AUTO 34004KT 10SM CLR 16/M12 A3013 RMK AO2 =
2015-04-01 17:35 METAR KOKV 012135Z AUTO 32007KT 10SM CLR 16/M11 A3012 RMK AO2 =
2015-04-01 17:15 METAR KOKV 012115Z AUTO 33006KT 10SM CLR 16/M12 A3012 RMK AO2 =
2015-04-01 16:55 METAR KOKV 012055Z AUTO 33005G16KT 10SM SCT080 16/M11 A3012 RMK AO2 =
2015-04-01 16:35 METAR KOKV 012035Z AUTO 30012G18KT 10SM SCT080 16/M12 A3012 RMK AO2 =
2015-04-01 16:15 METAR KOKV 012015Z AUTO 32010G15KT 10SM SCT080 15/M11 A3012 RMK AO2 =
2015-04-01 15:55 METAR KOKV 011955Z AUTO 32007KT 10SM SCT070 15/M10 A3013 RMK AO2 =
2015-04-01 15:35 METAR KOKV 011935Z AUTO 34009G19KT 10SM SCT070 15/M11 A3013 RMK AO2 =
2015-04-01 15:15 METAR KOKV 011915Z AUTO 30014G22KT 10SM SCT070 15/M10 A3013 RMK AO2 =
2015-04-01 14:55 METAR KOKV 011855Z AUTO 33010G16KT 10SM SCT070 15/M10 A3014 RMK AO2 =
2015-04-01 14:35 METAR KOKV 011835Z AUTO 30006G14KT 10SM CLR 14/M10 A3013 RMK AO2 =
2015-04-01 14:15 METAR KOKV 011815Z AUTO 31008KT 10SM SCT070 13/M10 A3014 RMK AO2 =
2015-04-01 13:55 METAR KOKV 011755Z AUTO 36005KT 10SM CLR 13/M10 A3014 RMK AO2 =
2015-04-01 13:35 METAR KOKV 011735Z AUTO 02003KT 10SM CLR 13/M10 A3015 RMK AO2 =
2015-04-01 13:15 METAR KOKV 011715Z AUTO 04004KT 10SM CLR 12/M10 A3015 RMK AO2 =
2015-04-01 12:55 METAR KOKV 011655Z AUTO 33006KT 10SM CLR 12/M09 A3015 RMK AO2 =
2015-04-01 12:35 METAR KOKV 011635Z AUTO 28003KT 10SM CLR 11/M10 A3015 RMK AO2 =
2015-04-01 12:15 METAR KOKV 011615Z AUTO 28006KT 10SM CLR 11/M10 A3015 RMK AO2 =
2015-04-01 11:55 METAR KOKV 011555Z AUTO 05004KT 10SM CLR 10/M10 A3016 RMK AO2 =
2015-04-01 11:35 METAR KOKV 011535Z AUTO 33004KT 10SM CLR 09/M10 A3016 RMK AO2 =
2015-04-01 11:15 METAR KOKV 011515Z AUTO 03003KT 10SM CLR 09/M10 A3016 RMK AO2 =
2015-04-01 10:55 METAR KOKV 011455Z AUTO 02003KT 10SM CLR 08/M10 A3016 RMK AO2 =
2015-04-01 10:35 METAR KOKV 011435Z AUTO 33007KT 280V350 10SM CLR 08/M09 A3015 RMK AO2 =
2015-04-01 10:15 METAR KOKV 011415Z AUTO 32003KT 10SM CLR 07/M10 A3015 RMK AO2 =
2015-04-01 09:55 METAR KOKV 011355Z AUTO 31003KT 10SM CLR 07/M07 A3014 RMK AO2 =
2015-04-01 09:35 METAR KOKV 011335Z AUTO 28005KT 10SM CLR 06/M05 A3014 RMK AO2 =
2015-04-01 09:15 METAR KOKV 011315Z AUTO 33005KT 10SM CLR 06/M05 A3013 RMK AO2 =
2015-04-01 08:35 METAR KOKV 011235Z AUTO 28004KT 10SM CLR 05/M04 A3011 RMK AO2 =
2015-04-01 08:15 METAR KOKV 011215Z AUTO 27003KT 10SM CLR 03/M03 A3010 RMK AO2 =
2015-04-01 07:35 METAR KOKV 011135Z AUTO 00000KT 10SM CLR 00/M05 A3008 RMK AO2 =
2015-04-01 07:15 METAR KOKV 011115Z AUTO 00000KT 10SM CLR 00/M05 A3007 RMK AO2 =
2015-04-01 06:55 METAR KOKV 011055Z AUTO 26004KT 10SM CLR 00/M05 A3005 RMK AO2 =
2015-04-01 06:35 METAR KOKV 011035Z AUTO 00000KT 10SM CLR 00/M05 A3005 RMK AO2 =
2015-04-01 06:15 METAR KOKV 011015Z AUTO 00000KT 10SM CLR 00/M06 A3003 RMK AO2 =
2015-04-01 05:35 METAR KOKV 010935Z AUTO 30003KT 10SM CLR 01/M05 A3001 RMK AO2 =
2015-04-01 05:15 METAR KOKV 010915Z AUTO 00000KT 10SM CLR 00/M05 A3000 RMK AO2 =
2015-04-01 04:55 METAR KOKV 010855Z AUTO 02003KT 10SM CLR 01/M05 A2999 RMK AO2 =
2015-04-01 04:35 METAR KOKV 010835Z AUTO 00000KT 10SM CLR 01/M05 A2998 RMK AO2 =
2015-04-01 04:15 METAR KOKV 010815Z AUTO 00000KT 10SM CLR 03/M05 A2998 RMK AO2 =
2015-04-01 03:55 METAR KOKV 010755Z AUTO 00000KT 10SM CLR 03/M05 A2998 RMK AO2 =
2015-04-01 03:35 METAR KOKV 010735Z AUTO 35003KT 10SM CLR 03/M05 A2997 RMK AO2 =
2015-04-01 03:15 METAR KOKV 010715Z AUTO 32006KT 10SM CLR 03/M05 A2997 RMK AO2 =
2015-04-01 02:55 METAR KOKV 010655Z AUTO 32008KT 10SM CLR 03/M05 A2996 RMK AO2 =
2015-04-01 02:35 METAR KOKV 010635Z AUTO 33006KT 10SM SCT034 04/M04 A2996 RMK AO2 =
2015-04-01 02:15 METAR KOKV 010615Z AUTO 35004KT 10SM OVC034 05/M03 A2996 RMK AO2 =
2015-04-01 01:35 METAR KOKV 010535Z AUTO 08003KT 10SM SCT036 05/M02 A2996 RMK AO2 =
2015-04-01 01:15 METAR KOKV 010515Z AUTO 00000KT 10SM CLR 05/M01 A2994 RMK AO2 =
2015-04-01 00:55 METAR KOKV 010455Z AUTO 36004KT 10SM CLR 06/M02 A2993 RMK AO2 =
2015-04-01 00:35 METAR KOKV 010435Z AUTO 34007KT 10SM SCT035 06/M01 A2993 RMK AO2 =

Support USWX by starting your Amazon purchase here.